createdAt,value
2019-05-02T00:01:13.805Z,9.60
2019-05-02T00:03:41.311Z,9.60
2019-05-02T00:06:09.347Z,9.70
2019-05-02T00:08:35.741Z,9.70
2019-05-02T00:11:02.059Z,9.60
2019-05-02T00:13:28.336Z,9.60
2019-05-02T00:15:54.563Z,9.60
2019-05-02T00:18:21.427Z,9.60
2019-05-02T00:20:47.448Z,9.40
2019-05-02T00:23:13.843Z,9.50
2019-05-02T00:25:39.895Z,9.60
2019-05-02T00:28:07.830Z,9.60
2019-05-02T00:30:34.709Z,9.60
2019-05-02T00:33:01.996Z,9.60
2019-05-02T00:35:28.003Z,9.70
2019-05-02T00:37:57.410Z,9.70
2019-05-02T00:40:25.611Z,9.60
2019-05-02T00:42:53.208Z,9.60
2019-05-02T00:45:18.724Z,9.50
2019-05-02T00:47:50.740Z,9.50
2019-05-02T00:50:17.446Z,9.60
2019-05-02T00:52:43.583Z,9.60
2019-05-02T00:55:12.547Z,9.80
2019-05-02T00:57:38.835Z,9.70
2019-05-02T01:00:05.170Z,9.70
2019-05-02T01:02:35.919Z,9.60
2019-05-02T01:05:03.285Z,9.60
2019-05-02T01:07:28.947Z,9.60
2019-05-02T01:09:54.971Z,9.50
2019-05-02T01:12:26.556Z,9.40
2019-05-02T01:14:49.937Z,9.30
2019-05-02T01:17:16.123Z,9.20
2019-05-02T01:19:42.142Z,9.20
2019-05-02T01:22:10.700Z,9.20
2019-05-02T01:24:39.606Z,9.20
2019-05-02T01:27:06.623Z,9.20
2019-05-02T01:29:40.498Z,9.20
2019-05-02T01:32:17.766Z,9.20
2019-05-02T01:34:54.573Z,9.30
2019-05-02T01:37:22.049Z,9.30
2019-05-02T01:39:48.543Z,9.20
2019-05-02T01:42:14.590Z,9.30
2019-05-02T01:44:40.620Z,9.30
2019-05-02T01:47:06.651Z,9.50
2019-05-02T01:49:32.685Z,9.50
2019-05-02T01:51:58.686Z,9.50
2019-05-02T01:54:24.727Z,9.50
2019-05-02T01:56:50.807Z,9.60
2019-05-02T01:59:16.847Z,9.70
2019-05-02T02:01:42.877Z,9.70
2019-05-02T02:04:08.975Z,9.70
2019-05-02T02:06:38.777Z,9.70
2019-05-02T02:09:08.374Z,9.70
2019-05-02T02:11:33.882Z,9.70
2019-05-02T02:14:00.575Z,9.70
2019-05-02T02:16:26.625Z,9.70
2019-05-02T02:18:59.013Z,9.70
2019-05-02T02:21:30.391Z,9.70
2019-05-02T02:24:01.331Z,9.70
2019-05-02T02:26:27.443Z,9.70
2019-05-02T02:28:53.527Z,9.70
2019-05-02T02:31:20.239Z,9.80
2019-05-02T02:33:49.811Z,9.80
2019-05-02T02:36:14.195Z,9.80
2019-05-02T02:38:40.230Z,9.80
2019-05-02T02:41:12.524Z,9.80
2019-05-02T02:43:35.081Z,9.60
2019-05-02T02:46:09.155Z,9.70
2019-05-02T02:48:40.637Z,9.70
2019-05-02T02:51:03.381Z,9.80
2019-05-02T02:53:29.459Z,9.90
2019-05-02T02:56:02.082Z,9.80
2019-05-02T02:58:24.876Z,9.80
2019-05-02T03:00:50.904Z,9.80
2019-05-02T03:03:20.991Z,9.50
2019-05-02T03:05:45.187Z,9.60
2019-05-02T03:08:11.676Z,9.30
2019-05-02T03:10:40.044Z,9.70
2019-05-02T03:13:15.149Z,9.50
2019-05-02T03:15:42.739Z,9.70
2019-05-02T03:18:08.856Z,9.70
2019-05-02T03:20:40.661Z,9.80
2019-05-02T03:23:03.219Z,9.80
2019-05-02T03:25:49.300Z,9.80
2019-05-02T03:27:57.406Z,10.00
2019-05-02T03:30:33.063Z,9.50
2019-05-02T03:33:04.686Z,9.80
2019-05-02T03:35:29.633Z,9.80
2019-05-02T03:37:51.393Z,9.80
2019-05-02T03:40:15.408Z,9.80
2019-05-02T03:42:44.662Z,9.80
2019-05-02T03:45:09.448Z,9.90
2019-05-02T03:47:36.954Z,9.90
2019-05-02T03:50:08.265Z,9.90
2019-05-02T03:52:36.831Z,10.00
2019-05-02T03:55:00.920Z,10.10
2019-05-02T03:57:33.342Z,10.10
2019-05-02T03:59:54.916Z,10.00
2019-05-02T04:02:21.846Z,10.00
2019-05-02T04:04:54.399Z,10.00
2019-05-02T04:07:16.395Z,10.10
2019-05-02T04:09:42.782Z,10.10
2019-05-02T04:12:18.672Z,10.10
2019-05-02T04:14:38.598Z,10.10
2019-05-02T04:17:04.893Z,10.20
2019-05-02T04:19:34.753Z,10.20
2019-05-02T04:22:01.742Z,10.20
2019-05-02T04:24:28.491Z,10.20
2019-05-02T04:26:56.352Z,10.30
2019-05-02T04:29:24.543Z,10.20
2019-05-02T04:31:50.877Z,10.30
2019-05-02T04:34:17.925Z,10.30
2019-05-02T04:36:46.781Z,10.30
2019-05-02T04:39:17.753Z,10.40
2019-05-02T04:41:42.467Z,10.40
2019-05-02T04:44:09.061Z,10.40
2019-05-02T04:46:35.387Z,10.40
2019-05-02T04:49:01.389Z,10.40
2019-05-02T04:51:31.505Z,10.40
2019-05-02T04:53:58.559Z,10.50
2019-05-02T04:56:23.316Z,10.40
2019-05-02T04:58:49.782Z,10.30
2019-05-02T05:01:16.219Z,10.30
2019-05-02T05:03:42.471Z,10.30
2019-05-02T05:06:12.300Z,10.30
2019-05-02T05:08:38.877Z,10.40
2019-05-02T05:11:04.471Z,10.50
2019-05-02T05:13:31.039Z,10.50
2019-05-02T05:15:57.422Z,10.50
2019-05-02T05:18:23.600Z,10.60
2019-05-02T05:20:53.233Z,10.50
2019-05-02T05:23:21.556Z,10.60
2019-05-02T05:25:50.771Z,10.60
2019-05-02T05:28:19.798Z,10.70
2019-05-02T05:31:07.531Z,10.60
2019-05-02T05:33:33.171Z,10.60
2019-05-02T05:35:59.193Z,10.60
2019-05-02T05:38:28.539Z,10.50
2019-05-02T05:40:53.235Z,10.50
2019-05-02T05:43:20.604Z,10.60
2019-05-02T05:45:53.591Z,10.60
2019-05-02T05:48:15.415Z,10.70
2019-05-02T05:50:41.625Z,10.70
2019-05-02T05:53:08.063Z,10.80
2019-05-02T05:55:34.224Z,10.80
2019-05-02T05:58:09.098Z,10.80
2019-05-02T06:00:28.261Z,10.90
2019-05-02T06:03:01.218Z,10.90
2019-05-02T06:05:22.791Z,11.00
2019-05-02T06:07:48.810Z,11.00
2019-05-02T06:10:14.846Z,11.00
2019-05-02T06:12:40.863Z,10.90
2019-05-02T06:15:06.916Z,11.00
2019-05-02T06:17:33.358Z,11.00
2019-05-02T06:19:59.463Z,11.00
2019-05-02T06:22:25.728Z,11.00
2019-05-02T06:24:52.188Z,11.00
2019-05-02T06:27:20.801Z,11.00
2019-05-02T06:29:46.211Z,11.00
2019-05-02T06:32:14.088Z,10.90
2019-05-02T06:34:46.328Z,10.90
2019-05-02T06:37:13.416Z,11.00
2019-05-02T06:39:36.784Z,11.00
2019-05-02T06:42:04.712Z,11.10
2019-05-02T06:44:30.750Z,11.10
2019-05-02T06:46:59.206Z,11.20
2019-05-02T06:49:26.022Z,11.30
2019-05-02T06:51:56.253Z,11.50
2019-05-02T06:54:22.922Z,11.70
2019-05-02T06:56:49.214Z,11.50
2019-05-02T06:59:18.410Z,11.30
2019-05-02T07:01:43.935Z,11.20
2019-05-02T07:04:09.952Z,11.00
2019-05-02T07:06:56.065Z,11.00
2019-05-02T07:09:05.092Z,11.00
2019-05-02T07:11:33.449Z,10.90
2019-05-02T07:14:12.127Z,11.10
2019-05-02T07:16:38.067Z,11.40
2019-05-02T07:18:58.979Z,11.40
2019-05-02T07:21:25.003Z,11.40
2019-05-02T07:23:53.830Z,11.40
2019-05-02T07:26:21.107Z,11.50
2019-05-02T07:28:47.586Z,11.70
2019-05-02T07:31:17.655Z,11.60
2019-05-02T07:33:43.787Z,11.50
2019-05-02T07:36:09.818Z,11.40
2019-05-02T07:38:35.949Z,11.20
2019-05-02T07:41:04.971Z,11.20
2019-05-02T07:43:33.955Z,11.10
2019-05-02T07:46:03.322Z,11.20
2019-05-02T07:48:29.351Z,11.10
2019-05-02T07:50:55.780Z,11.20
2019-05-02T07:53:22.739Z,11.10
2019-05-02T07:55:49.278Z,11.10
2019-05-02T07:58:15.472Z,11.20
2019-05-02T08:00:41.595Z,11.40
2019-05-02T08:03:07.615Z,11.40
2019-05-02T08:05:33.951Z,11.60
2019-05-02T08:08:00.110Z,11.60
2019-05-02T08:10:26.258Z,11.50
2019-05-02T08:12:52.275Z,11.40
2019-05-02T08:15:18.307Z,11.20
2019-05-02T08:17:51.460Z,11.20
2019-05-02T08:20:13.699Z,11.20
2019-05-02T08:22:44.048Z,11.20
2019-05-02T08:25:10.549Z,11.10
2019-05-02T08:27:44.922Z,11.10
2019-05-02T08:30:12.844Z,11.00
2019-05-02T08:32:38.903Z,11.00
2019-05-02T08:35:05.332Z,11.00
2019-05-02T08:37:35.423Z,11.10
2019-05-02T08:39:59.326Z,11.20
2019-05-02T08:42:27.653Z,11.20
2019-05-02T08:44:56.312Z,11.10
2019-05-02T08:47:23.875Z,11.10
2019-05-02T08:49:54.849Z,11.00
2019-05-02T08:52:20.297Z,11.00
2019-05-02T08:54:46.332Z,11.00
2019-05-02T08:57:15.906Z,10.90
2019-05-02T08:59:42.219Z,10.90
2019-05-02T09:02:08.236Z,10.80
2019-05-02T09:04:34.649Z,10.80
2019-05-02T09:07:00.923Z,10.80
2019-05-02T09:09:28.026Z,10.90
2019-05-02T09:12:09.766Z,10.80
2019-05-02T09:14:27.593Z,10.90
2019-05-02T09:16:53.641Z,11.00
2019-05-02T09:19:21.451Z,10.90
2019-05-02T09:21:47.683Z,10.90
2019-05-02T09:24:20.937Z,11.00
2019-05-02T09:26:42.608Z,11.00
2019-05-02T09:29:09.331Z,11.10
2019-05-02T09:31:42.241Z,11.00
2019-05-02T09:34:06.567Z,11.10
2019-05-02T09:36:32.676Z,11.00
2019-05-02T09:38:58.688Z,11.00
2019-05-02T09:41:26.832Z,11.00
2019-05-02T09:43:53.043Z,11.10
2019-05-02T09:46:19.146Z,11.00
2019-05-02T09:48:45.152Z,11.00
2019-05-02T09:51:16.737Z,10.90
2019-05-02T09:53:39.119Z,11.00
2019-05-02T09:56:05.154Z,11.00
2019-05-02T09:58:32.038Z,11.00
2019-05-02T10:01:05.957Z,11.00
2019-05-02T10:03:32.449Z,11.20
2019-05-02T10:05:58.484Z,11.30
2019-05-02T10:08:24.487Z,11.50
2019-05-02T10:10:52.170Z,11.60
2019-05-02T10:13:18.364Z,11.50
2019-05-02T10:15:44.572Z,11.20
2019-05-02T10:18:13.704Z,11.30
2019-05-02T10:20:38.639Z,11.20
2019-05-02T10:23:04.651Z,11.30
2019-05-02T10:25:38.314Z,11.40
2019-05-02T10:27:58.655Z,11.60
2019-05-02T10:30:28.260Z,11.70
2019-05-02T10:32:57.226Z,11.60
2019-05-02T10:35:28.121Z,11.60
2019-05-02T10:37:52.281Z,11.60
2019-05-02T10:40:18.353Z,11.70
2019-05-02T10:42:46.339Z,11.80
2019-05-02T10:45:16.610Z,11.90
2019-05-02T10:47:42.248Z,12.10
2019-05-02T10:50:11.671Z,12.10
2019-05-02T10:52:37.824Z,12.10
2019-05-02T10:55:05.086Z,11.90
2019-05-02T10:57:32.621Z,12.00
2019-05-02T10:59:58.856Z,12.00
2019-05-02T11:02:26.932Z,12.00
2019-05-02T11:05:02.625Z,11.90
2019-05-02T11:07:28.622Z,12.00
2019-05-02T11:09:57.409Z,12.20
2019-05-02T11:12:43.401Z,12.10
2019-05-02T11:15:05.647Z,12.20
2019-05-02T11:17:36.501Z,12.00
2019-05-02T11:20:06.634Z,12.10
2019-05-02T11:22:32.643Z,12.10
2019-05-02T11:24:58.682Z,12.10
2019-05-02T11:27:28.096Z,12.10
2019-05-02T11:29:55.311Z,12.20
2019-05-02T11:32:22.131Z,12.30
2019-05-02T11:34:48.414Z,12.40
2019-05-02T11:37:14.483Z,12.50
2019-05-02T11:39:46.648Z,12.50
2019-05-02T11:42:08.797Z,12.60
2019-05-02T11:44:34.815Z,12.70
2019-05-02T11:47:01.969Z,12.80
2019-05-02T11:49:31.991Z,13.00
2019-05-02T11:52:04.668Z,12.80
2019-05-02T11:54:34.213Z,12.70
2019-05-02T11:57:02.109Z,12.50
2019-05-02T11:59:29.288Z,12.30
2019-05-02T12:02:03.083Z,12.40
2019-05-02T12:04:29.236Z,12.40
2019-05-02T12:07:01.111Z,12.80
2019-05-02T12:09:23.385Z,13.40
2019-05-02T12:11:55.029Z,14.10
2019-05-02T12:14:17.354Z,14.40
2019-05-02T12:16:52.754Z,14.50
2019-05-02T12:19:15.072Z,14.20
2019-05-02T12:21:44.799Z,14.00
2019-05-02T12:24:12.647Z,13.80
2019-05-02T12:26:38.780Z,13.30
2019-05-02T12:29:04.889Z,13.30
2019-05-02T12:31:42.682Z,13.30
2019-05-02T12:34:11.651Z,13.50
2019-05-02T12:36:37.901Z,13.90
2019-05-02T12:39:04.492Z,14.10
2019-05-02T12:41:32.881Z,14.00
2019-05-02T12:43:58.815Z,14.20
2019-05-02T12:46:24.823Z,13.90
2019-05-02T12:48:52.003Z,13.70
2019-05-02T12:51:33.167Z,13.50
2019-05-02T12:53:59.167Z,13.50
2019-05-02T12:56:25.183Z,13.60
2019-05-02T12:58:52.924Z,13.70
2019-05-02T13:01:24.655Z,13.90
2019-05-02T13:03:52.660Z,14.40
2019-05-02T13:06:18.711Z,14.60
2019-05-02T13:08:48.103Z,14.60
2019-05-02T13:11:24.583Z,14.30
2019-05-02T13:13:59.612Z,14.20
2019-05-02T13:16:25.747Z,13.80
2019-05-02T13:18:51.990Z,13.70
2019-05-02T13:21:21.602Z,13.70
2019-05-02T13:23:56.300Z,13.80
2019-05-02T13:26:27.229Z,13.70
2019-05-02T13:28:55.177Z,13.50
2019-05-02T13:31:28.915Z,13.50
2019-05-02T13:34:01.706Z,13.50
2019-05-02T13:36:38.053Z,13.50
2019-05-02T13:39:07.036Z,13.50
2019-05-02T13:41:33.065Z,13.40
2019-05-02T13:43:59.269Z,13.50
2019-05-02T13:46:26.806Z,13.60
2019-05-02T13:48:53.124Z,13.60
2019-05-02T13:51:19.255Z,13.60
2019-05-02T13:53:53.270Z,13.50
2019-05-02T13:56:21.958Z,13.70
2019-05-02T13:58:48.307Z,13.90
2019-05-02T14:01:14.825Z,14.20
2019-05-02T14:03:42.096Z,14.40
2019-05-02T14:06:08.285Z,14.60
2019-05-02T14:08:45.371Z,14.80
2019-05-02T14:11:35.373Z,15.30
2019-05-02T14:14:01.958Z,15.40
2019-05-02T14:16:28.154Z,15.60
2019-05-02T14:18:54.184Z,15.70
2019-05-02T14:21:22.393Z,15.70
2019-05-02T14:23:48.624Z,15.40
2019-05-02T14:26:27.562Z,15.20
2019-05-02T14:28:43.338Z,15.10
2019-05-02T14:31:09.595Z,15.10
2019-05-02T14:33:37.857Z,15.10
2019-05-02T14:36:04.108Z,16.00
2019-05-02T14:38:32.157Z,17.00
2019-05-02T14:41:00.355Z,17.00
2019-05-02T14:43:48.050Z,16.70
2019-05-02T14:46:12.738Z,16.10
2019-05-02T14:48:43.699Z,15.80
2019-05-02T14:51:07.267Z,15.60
2019-05-02T14:53:33.572Z,15.40
2019-05-02T14:56:04.459Z,15.40
2019-05-02T14:58:29.477Z,15.40
2019-05-02T15:00:56.183Z,15.40
2019-05-02T15:03:24.571Z,15.20
2019-05-02T15:05:50.173Z,15.20
2019-05-02T15:08:16.210Z,15.70
2019-05-02T15:10:50.804Z,16.60
2019-05-02T15:13:12.474Z,17.60
2019-05-02T15:15:43.486Z,18.00
2019-05-02T15:18:13.472Z,18.10
2019-05-02T15:20:39.491Z,17.90
2019-05-02T15:23:07.219Z,17.70
2019-05-02T15:25:33.621Z,18.40
2019-05-02T15:28:03.183Z,18.70
2019-05-02T15:30:29.278Z,18.60
2019-05-02T15:32:57.199Z,17.80
2019-05-02T15:35:45.002Z,17.10
2019-05-02T15:38:24.582Z,16.60
2019-05-02T15:40:50.651Z,16.30
2019-05-02T15:43:15.135Z,16.20
2019-05-02T15:45:44.168Z,17.20
2019-05-02T15:48:14.672Z,18.70
2019-05-02T15:50:48.797Z,19.00
2019-05-02T15:53:12.471Z,18.50
2019-05-02T15:55:43.592Z,17.90
2019-05-02T15:58:16.890Z,17.00
2019-05-02T16:00:43.606Z,16.50
2019-05-02T16:03:19.832Z,15.80
2019-05-02T16:05:47.388Z,15.20
2019-05-02T16:08:25.955Z,14.60
2019-05-02T16:11:08.734Z,14.10
2019-05-02T16:13:47.008Z,13.50
2019-05-02T16:16:18.393Z,13.00
2019-05-02T16:18:52.633Z,12.80
2019-05-02T16:21:52.006Z,12.40
2019-05-02T16:24:23.600Z,12.20
2019-05-02T16:26:53.236Z,12.00
2019-05-02T16:29:29.109Z,11.90
2019-05-02T16:32:01.280Z,11.90
2019-05-02T16:34:33.894Z,12.00
2019-05-02T16:37:13.612Z,11.90
2019-05-02T16:39:37.256Z,11.70
2019-05-02T16:42:04.786Z,11.50
2019-05-02T16:44:32.223Z,11.30
2019-05-02T16:46:58.334Z,11.30
2019-05-02T16:49:24.635Z,11.30
2019-05-02T16:51:52.841Z,11.20
2019-05-02T16:54:18.678Z,11.10
2019-05-02T16:56:46.049Z,11.00
2019-05-02T16:59:12.753Z,10.90
2019-05-02T17:01:38.771Z,10.90
2019-05-02T17:04:08.459Z,10.80
2019-05-02T17:06:36.430Z,10.90
2019-05-02T17:09:21.710Z,10.90
2019-05-02T17:11:47.963Z,10.90
2019-05-02T17:14:13.991Z,11.00
2019-05-02T17:16:42.022Z,11.20
2019-05-02T17:19:08.282Z,11.20
2019-05-02T17:21:52.463Z,11.20
2019-05-02T17:24:08.027Z,11.20
2019-05-02T17:26:36.574Z,10.90
2019-05-02T17:29:08.363Z,10.80
2019-05-02T17:31:36.111Z,10.80
2019-05-02T17:34:05.923Z,10.80
2019-05-02T17:36:42.794Z,10.70
2019-05-02T17:39:14.388Z,10.70
2019-05-02T17:41:45.667Z,10.70
2019-05-02T17:44:22.184Z,10.70
2019-05-02T17:46:50.871Z,10.70
2019-05-02T17:49:17.196Z,10.70
2019-05-02T17:52:19.807Z,10.70
2019-05-02T17:54:43.536Z,10.80
2019-05-02T17:57:33.441Z,10.70
2019-05-02T18:00:07.496Z,10.70
2019-05-02T18:02:47.010Z,10.70
2019-05-02T18:05:18.317Z,10.70
2019-05-02T18:07:58.275Z,10.70
2019-05-02T18:10:35.790Z,10.60
2019-05-02T18:13:13.087Z,10.60
2019-05-02T18:15:48.039Z,10.60
2019-05-02T18:18:25.020Z,10.60
2019-05-02T18:20:52.889Z,10.70
2019-05-02T18:23:25.873Z,10.70
2019-05-02T18:25:57.321Z,10.70
2019-05-02T18:28:28.884Z,10.70
2019-05-02T18:31:02.784Z,10.70
2019-05-02T18:33:26.875Z,10.60
2019-05-02T18:35:54.884Z,10.60
2019-05-02T18:38:22.368Z,10.40
2019-05-02T18:40:52.121Z,10.40
2019-05-02T18:43:19.496Z,10.40
2019-05-02T18:45:48.148Z,10.30
2019-05-02T18:48:16.808Z,10.30
2019-05-02T18:50:46.890Z,10.30
2019-05-02T18:53:10.751Z,10.40
2019-05-02T18:55:39.449Z,10.40
2019-05-02T18:58:05.724Z,10.30
2019-05-02T19:00:37.546Z,10.30
2019-05-02T19:02:59.659Z,10.30
2019-05-02T19:05:26.596Z,10.30
2019-05-02T19:07:56.413Z,10.30
2019-05-02T19:10:20.659Z,10.20
2019-05-02T19:12:46.683Z,10.10
2019-05-02T19:15:12.771Z,10.10
2019-05-02T19:17:40.369Z,10.10
2019-05-02T19:20:22.747Z,10.20
2019-05-02T19:22:52.875Z,10.20
2019-05-02T19:25:16.696Z,10.10
2019-05-02T19:27:52.051Z,10.00
2019-05-02T19:30:24.541Z,10.10
2019-05-02T19:32:49.071Z,10.10
2019-05-02T19:35:15.547Z,10.10
2019-05-02T19:37:44.574Z,10.10
2019-05-02T19:40:12.544Z,10.10
2019-05-02T19:42:39.095Z,10.10
2019-05-02T19:45:11.584Z,10.10
2019-05-02T19:47:33.716Z,10.10
2019-05-02T19:49:59.841Z,10.00
2019-05-02T19:52:28.613Z,10.00
2019-05-02T19:54:55.730Z,10.00
2019-05-02T19:57:26.153Z,10.00
2019-05-02T19:59:49.902Z,10.00
2019-05-02T20:02:15.905Z,9.90
2019-05-02T20:04:42.691Z,9.90
2019-05-02T20:07:10.588Z,10.00
2019-05-02T20:09:42.537Z,10.10
2019-05-02T20:12:13.417Z,10.00
2019-05-02T20:14:38.235Z,9.90
2019-05-02T20:17:24.135Z,9.90
2019-05-02T20:19:57.745Z,9.80
2019-05-02T20:22:22.590Z,9.80
2019-05-02T20:25:00.091Z,9.80
2019-05-02T20:27:28.233Z,9.80
2019-05-02T20:30:02.902Z,9.80
2019-05-02T20:32:29.164Z,9.80
2019-05-02T20:34:58.504Z,9.70
2019-05-02T20:37:24.685Z,9.60
2019-05-02T20:39:58.577Z,9.60
2019-05-02T20:42:34.201Z,9.60
2019-05-02T20:45:05.481Z,9.60
2019-05-02T20:47:42.712Z,9.60
2019-05-02T20:50:08.977Z,9.50
2019-05-02T20:52:52.897Z,9.50
2019-05-02T20:55:24.763Z,9.50
2019-05-02T20:57:55.462Z,9.40
2019-05-02T21:00:32.046Z,9.30
2019-05-02T21:02:58.715Z,9.30
2019-05-02T21:05:29.703Z,9.20
2019-05-02T21:08:14.422Z,9.00
2019-05-02T21:10:44.875Z,9.00
2019-05-02T21:13:12.561Z,8.90
2019-05-02T21:15:38.804Z,8.90
2019-05-02T21:18:04.814Z,8.80
2019-05-02T21:20:32.545Z,8.70
2019-05-02T21:22:58.788Z,8.70
2019-05-02T21:25:24.843Z,8.70
2019-05-02T21:27:52.361Z,8.70
2019-05-02T21:30:23.489Z,8.70
2019-05-02T21:32:49.507Z,8.60
2019-05-02T21:35:17.513Z,8.50
2019-05-02T21:37:43.649Z,8.60
2019-05-02T21:40:11.706Z,8.60
2019-05-02T21:42:37.716Z,8.60
2019-05-02T21:45:05.279Z,8.50
2019-05-02T21:47:32.437Z,8.40
2019-05-02T21:50:01.837Z,8.40
2019-05-02T21:52:39.459Z,8.40
2019-05-02T21:55:07.481Z,8.40
2019-05-02T21:57:33.789Z,8.40
2019-05-02T22:00:02.306Z,8.40
2019-05-02T22:02:28.171Z,8.00
2019-05-02T22:04:54.181Z,8.20
2019-05-02T22:07:21.788Z,8.30
2019-05-02T22:09:47.992Z,8.30
2019-05-02T22:12:14.007Z,8.30
2019-05-02T22:14:42.018Z,7.90
2019-05-02T22:17:07.964Z,8.30
2019-05-02T22:19:33.995Z,8.30
2019-05-02T22:22:01.615Z,8.20
2019-05-02T22:24:27.795Z,8.50
2019-05-02T22:26:54.075Z,8.70
2019-05-02T22:29:21.860Z,8.50
2019-05-02T22:31:48.063Z,8.60
2019-05-02T22:34:14.075Z,8.50
2019-05-02T22:36:41.356Z,8.50
2019-05-02T22:39:15.372Z,8.40
2019-05-02T22:41:42.004Z,8.30
2019-05-02T22:44:08.450Z,7.90
2019-05-02T22:46:43.785Z,8.20
2019-05-02T22:49:11.890Z,8.10
2019-05-02T22:51:38.683Z,8.20
2019-05-02T22:54:05.668Z,8.00
2019-05-02T22:56:31.793Z,7.90
2019-05-02T22:58:57.919Z,7.90
2019-05-02T23:01:23.963Z,8.00
2019-05-02T23:03:52.367Z,7.90
2019-05-02T23:06:21.320Z,8.00
2019-05-02T23:08:47.330Z,7.90
2019-05-02T23:11:13.720Z,8.10
2019-05-02T23:13:40.039Z,8.00
2019-05-02T23:16:06.056Z,7.90
2019-05-02T23:18:32.079Z,7.90
2019-05-02T23:20:58.096Z,8.10
2019-05-02T23:23:24.326Z,7.80
2019-05-02T23:26:04.378Z,8.20
2019-05-02T23:28:32.311Z,8.00
2019-05-02T23:30:58.338Z,8.10
2019-05-02T23:33:26.263Z,8.10
2019-05-02T23:35:52.275Z,7.70
2019-05-02T23:38:18.350Z,8.00
2019-05-02T23:40:44.395Z,8.10
2019-05-02T23:43:12.390Z,8.10
2019-05-02T23:45:38.648Z,7.90
2019-05-02T23:48:04.787Z,7.90
2019-05-02T23:50:30.799Z,8.20
2019-05-02T23:52:56.811Z,7.90
2019-05-02T23:55:23.852Z,8.00
2019-05-02T23:57:49.864Z,8.20
